createdAt,value
2022-08-30T00:00:21.445Z,101506.78
2022-08-30T00:01:25.386Z,101506.28
2022-08-30T00:02:27.086Z,101507.28
2022-08-30T00:03:31.412Z,101506.63
2022-08-30T00:04:33.685Z,101504.94
2022-08-30T00:05:39.532Z,101506.97
2022-08-30T00:06:41.131Z,101509.81
2022-08-30T00:07:43.797Z,101506.31
2022-08-30T00:08:46.436Z,101505.59
2022-08-30T00:09:49.078Z,101505.78
2022-08-30T00:10:51.178Z,101507.63
2022-08-30T00:11:53.731Z,101497.84
2022-08-30T00:12:55.724Z,101497.00
2022-08-30T00:13:58.853Z,101497.19
2022-08-30T00:15:00.538Z,101500.88
2022-08-30T00:16:04.773Z,101500.88
2022-08-30T00:17:06.517Z,101505.44
2022-08-30T00:18:10.140Z,101499.53
2022-08-30T00:19:11.769Z,101498.69
2022-08-30T00:20:17.588Z,101495.16
2022-08-30T00:21:20.716Z,101502.41
2022-08-30T00:22:23.560Z,101499.88
2022-08-30T00:23:25.699Z,101505.25
2022-08-30T00:24:28.823Z,101511.50
2022-08-30T00:25:31.359Z,101506.94
2022-08-30T00:26:33.930Z,101508.66
2022-08-30T00:27:35.583Z,101506.75
2022-08-30T00:28:38.270Z,101508.66
2022-08-30T00:29:39.852Z,101509.31
2022-08-30T00:30:42.991Z,101511.00
2022-08-30T00:31:44.708Z,101500.88
2022-08-30T00:32:48.045Z,101502.59
2022-08-30T00:33:50.608Z,101502.41
2022-08-30T00:34:54.418Z,101504.94
2022-08-30T00:35:57.230Z,101503.91
2022-08-30T00:37:00.855Z,101503.91
2022-08-30T00:38:03.385Z,101509.31
2022-08-30T00:39:06.348Z,101511.00
2022-08-30T00:40:12.068Z,101510.00
2022-08-30T00:41:13.876Z,101506.44
2022-08-30T00:42:17.540Z,101512.69
2022-08-30T00:43:23.120Z,101509.31
2022-08-30T00:44:26.832Z,101506.59
2022-08-30T00:45:31.937Z,101510.34
2022-08-30T00:46:34.540Z,101513.03
2022-08-30T00:47:36.234Z,101511.34
2022-08-30T00:48:41.741Z,101508.97
2022-08-30T00:49:47.183Z,101511.81
2022-08-30T00:50:54.129Z,101517.53
2022-08-30T00:51:56.576Z,101515.03
2022-08-30T00:53:05.185Z,101515.38
2022-08-30T00:54:07.830Z,101517.22
2022-08-30T00:55:13.598Z,101520.06
2022-08-30T00:56:16.055Z,101521.09
2022-08-30T00:57:19.012Z,101522.94
2022-08-30T00:58:27.245Z,101523.09
2022-08-30T00:59:30.580Z,101524.13
2022-08-30T01:00:32.521Z,101519.72
2022-08-30T01:01:35.990Z,101525.13
2022-08-30T01:02:39.065Z,101526.13
2022-08-30T01:03:43.760Z,101528.16
2022-08-30T01:04:46.181Z,101527.31
2022-08-30T01:05:50.375Z,101521.91
2022-08-30T01:06:52.945Z,101531.19
2022-08-30T01:07:55.495Z,101530.34
2022-08-30T01:08:58.714Z,101528.81
2022-08-30T01:10:03.360Z,101522.72
2022-08-30T01:11:05.449Z,101534.53
2022-08-30T01:12:09.211Z,101533.84
2022-08-30T01:13:13.801Z,101541.91
2022-08-30T01:14:17.136Z,101538.56
2022-08-30T01:15:18.924Z,101536.00
2022-08-30T01:16:25.311Z,101538.88
2022-08-30T01:17:29.556Z,101536.34
2022-08-30T01:18:32.877Z,101533.84
2022-08-30T01:19:48.343Z,101537.53
2022-08-30T01:20:57.230Z,101535.00
2022-08-30T01:22:06.579Z,101533.47
2022-08-30T01:23:13.538Z,101530.78
2022-08-30T01:24:16.743Z,101533.47
2022-08-30T01:25:24.611Z,101541.53
2022-08-30T01:26:28.585Z,101536.34
2022-08-30T01:27:33.133Z,101538.84
2022-08-30T01:28:35.342Z,101541.53
2022-08-30T01:29:38.256Z,101541.53
2022-08-30T01:30:40.337Z,101532.47
2022-08-30T01:31:42.936Z,101540.53
2022-08-30T01:32:47.573Z,101537.84
2022-08-30T01:33:50.944Z,101538.69
2022-08-30T01:34:52.612Z,101530.63
2022-08-30T01:35:57.429Z,101535.81
2022-08-30T01:37:02.389Z,101529.63
2022-08-30T01:38:05.264Z,101535.81
2022-08-30T01:39:10.187Z,101536.69
2022-08-30T01:40:15.431Z,101527.75
2022-08-30T01:41:19.468Z,101534.84
2022-08-30T01:42:22.451Z,101531.13
2022-08-30T01:43:24.186Z,101532.81
2022-08-30T01:44:26.862Z,101537.19
2022-08-30T01:45:31.967Z,101532.50
2022-08-30T01:46:37.322Z,101536.88
2022-08-30T01:47:40.553Z,101537.91
2022-08-30T01:48:42.630Z,101539.56
2022-08-30T01:49:55.624Z,101540.41
2022-08-30T01:50:57.246Z,101541.91
2022-08-30T01:52:01.083Z,101542.78
2022-08-30T01:53:05.458Z,101548.00
2022-08-30T01:54:09.647Z,101537.91
2022-08-30T01:55:11.648Z,101544.97
2022-08-30T01:56:14.792Z,101549.34
2022-08-30T01:57:19.081Z,101543.81
2022-08-30T01:58:22.386Z,101549.19
2022-08-30T01:59:24.070Z,101550.88
2022-08-30T02:00:26.917Z,101542.09
2022-08-30T02:01:29.590Z,101541.25
2022-08-30T02:02:35.408Z,101548.53
2022-08-30T02:03:37.223Z,101545.97
2022-08-30T02:04:39.859Z,101554.06
2022-08-30T02:05:41.816Z,101550.50
2022-08-30T02:06:45.177Z,101548.84
2022-08-30T02:07:46.757Z,101547.31
2022-08-30T02:08:51.327Z,101545.66
2022-08-30T02:09:54.356Z,101553.72
2022-08-30T02:10:58.012Z,101542.09
2022-08-30T02:12:00.680Z,101543.09
2022-08-30T02:13:02.991Z,101539.75
2022-08-30T02:14:06.940Z,101544.09
2022-08-30T02:15:09.994Z,101543.28
2022-08-30T02:16:15.928Z,101546.78
2022-08-30T02:17:19.324Z,101543.28
2022-08-30T02:18:21.986Z,101538.88
2022-08-30T02:19:23.722Z,101539.88
2022-08-30T02:20:26.521Z,101543.28
2022-08-30T02:21:28.178Z,101542.44
2022-08-30T02:22:30.790Z,101537.91
2022-08-30T02:23:32.483Z,101535.34
2022-08-30T02:24:35.727Z,101538.88
2022-08-30T02:25:39.120Z,101539.88
2022-08-30T02:26:42.418Z,101536.34
2022-08-30T02:27:44.501Z,101537.19
2022-08-30T02:28:49.816Z,101538.88
2022-08-30T02:29:53.531Z,101538.72
2022-08-30T02:30:56.325Z,101543.44
2022-08-30T02:31:58.207Z,101539.88
2022-08-30T02:33:01.417Z,101542.56
2022-08-30T02:34:04.413Z,101536.34
2022-08-30T02:35:07.788Z,101537.38
2022-08-30T02:36:09.702Z,101537.38
2022-08-30T02:37:12.469Z,101539.22
2022-08-30T02:38:14.338Z,101536.69
2022-08-30T02:39:17.106Z,101543.75
2022-08-30T02:40:19.406Z,101529.63
2022-08-30T02:41:24.090Z,101533.13
2022-08-30T02:42:25.668Z,101531.47
2022-08-30T02:43:28.527Z,101528.78
2022-08-30T02:44:30.136Z,101528.78
2022-08-30T02:45:32.875Z,101536.69
2022-08-30T02:46:35.301Z,101530.44
2022-08-30T02:47:38.417Z,101532.31
2022-08-30T02:48:40.142Z,101530.44
2022-08-30T02:49:42.770Z,101537.53
2022-08-30T02:50:47.038Z,101535.00
2022-08-30T02:51:49.997Z,101529.78
2022-08-30T02:52:52.007Z,101526.22
2022-08-30T02:53:56.886Z,101525.38
2022-08-30T02:54:59.697Z,101529.94
2022-08-30T02:56:02.659Z,101529.09
2022-08-30T02:57:06.651Z,101519.47
2022-08-30T02:58:10.531Z,101528.75
2022-08-30T02:59:12.117Z,101520.00
2022-08-30T03:00:17.812Z,101517.44
2022-08-30T03:01:19.734Z,101523.00
2022-08-30T03:02:23.103Z,101528.53
2022-08-30T03:03:25.277Z,101517.78
2022-08-30T03:04:28.139Z,101523.34
2022-08-30T03:05:31.369Z,101517.97
2022-08-30T03:06:33.223Z,101523.34
2022-08-30T03:07:35.901Z,101529.53
2022-08-30T03:08:37.697Z,101521.66
2022-08-30T03:09:40.704Z,101523.34
2022-08-30T03:10:42.306Z,101521.31
2022-08-30T03:11:45.476Z,101520.47
2022-08-30T03:12:48.626Z,101520.47
2022-08-30T03:13:51.249Z,101519.63
2022-08-30T03:14:53.019Z,101519.63
2022-08-30T03:15:55.646Z,101513.56
2022-08-30T03:16:57.273Z,101516.25
2022-08-30T03:17:59.903Z,101518.94
2022-08-30T03:19:01.514Z,101519.94
2022-08-30T03:20:05.718Z,101512.91
2022-08-30T03:21:11.129Z,101510.22
2022-08-30T03:22:14.193Z,101511.22
2022-08-30T03:23:21.901Z,101519.28
2022-08-30T03:24:24.754Z,101521.97
2022-08-30T03:25:27.967Z,101523.66
2022-08-30T03:26:30.526Z,101520.13
2022-08-30T03:27:32.184Z,101521.13
2022-08-30T03:28:36.108Z,101525.66
2022-08-30T03:29:39.157Z,101519.56
2022-08-30T03:30:41.783Z,101510.81
2022-08-30T03:31:53.371Z,101517.22
2022-08-30T03:32:56.395Z,101512.97
2022-08-30T03:34:00.494Z,101515.00
2022-08-30T03:35:03.276Z,101514.16
2022-08-30T03:36:05.458Z,101515.31
2022-08-30T03:37:08.061Z,101519.84
2022-08-30T03:38:09.767Z,101521.03
2022-08-30T03:39:13.908Z,101527.59
2022-08-30T03:40:18.919Z,101522.34
2022-08-30T03:41:21.612Z,101517.97
2022-08-30T03:42:24.156Z,101515.44
2022-08-30T03:43:27.425Z,101513.75
2022-08-30T03:44:32.270Z,101508.56
2022-08-30T03:45:34.945Z,101512.91
2022-08-30T03:46:37.665Z,101514.09
2022-08-30T03:47:41.062Z,101513.22
2022-08-30T03:48:43.983Z,101510.72
2022-08-30T03:49:46.557Z,101510.72
2022-08-30T03:50:49.135Z,101498.25
2022-08-30T03:51:52.271Z,101498.25
2022-08-30T03:52:54.931Z,101511.72
2022-08-30T03:53:56.553Z,101508.19
2022-08-30T03:55:00.678Z,101505.66
2022-08-30T03:56:02.996Z,101503.97
2022-08-30T03:57:06.221Z,101505.66
2022-08-30T03:58:07.894Z,101509.34
2022-08-30T03:59:11.441Z,101508.50
2022-08-30T04:00:16.691Z,101515.06
2022-08-30T04:01:19.741Z,101518.75
2022-08-30T04:02:22.587Z,101516.38
2022-08-30T04:03:26.007Z,101513.84
2022-08-30T04:04:28.949Z,101515.53
2022-08-30T04:05:30.744Z,101508.63
2022-08-30T04:06:33.276Z,101518.53
2022-08-30T04:07:37.223Z,101517.69
2022-08-30T04:08:40.175Z,101521.41
2022-08-30T04:09:42.871Z,101512.63
2022-08-30T04:10:45.522Z,101518.00
2022-08-30T04:11:47.355Z,101520.69
2022-08-30T04:12:50.348Z,101517.19
2022-08-30T04:13:53.253Z,101520.69
2022-08-30T04:14:56.211Z,101519.88
2022-08-30T04:15:59.565Z,101518.00
2022-08-30T04:17:02.336Z,101517.19
2022-08-30T04:18:04.006Z,101518.00
2022-08-30T04:19:06.849Z,101518.00
2022-08-30T04:20:10.061Z,101521.41
2022-08-30T04:21:15.672Z,101522.41
2022-08-30T04:22:17.569Z,101521.53
2022-08-30T04:23:20.629Z,101518.00
2022-08-30T04:24:22.245Z,101516.34
2022-08-30T04:25:24.858Z,101521.72
2022-08-30T04:26:27.647Z,101521.03
2022-08-30T04:27:32.352Z,101529.94
2022-08-30T04:28:35.968Z,101528.09
2022-08-30T04:29:37.584Z,101518.31
2022-08-30T04:30:41.259Z,101524.56
2022-08-30T04:31:44.355Z,101520.03
2022-08-30T04:32:47.075Z,101524.56
2022-08-30T04:33:49.267Z,101522.84
2022-08-30T04:34:56.377Z,101526.56
2022-08-30T04:36:03.466Z,101525.72
2022-08-30T04:37:07.057Z,101530.44
2022-08-30T04:38:13.491Z,101528.75
2022-08-30T04:39:16.311Z,101522.66
2022-08-30T04:40:18.491Z,101530.06
2022-08-30T04:41:24.260Z,101525.53
2022-08-30T04:42:26.423Z,101527.34
2022-08-30T04:43:29.787Z,101528.34
2022-08-30T04:44:31.980Z,101525.66
2022-08-30T04:45:34.624Z,101521.31
2022-08-30T04:46:36.547Z,101523.28
2022-08-30T04:47:49.278Z,101523.28
2022-08-30T04:48:50.945Z,101519.94
2022-08-30T04:49:53.742Z,101523.63
2022-08-30T04:50:55.379Z,101523.63
2022-08-30T04:51:58.352Z,101529.00
2022-08-30T04:52:59.973Z,101528.13
2022-08-30T04:54:02.761Z,101533.53
2022-08-30T04:55:05.317Z,101529.00
2022-08-30T04:56:09.227Z,101530.84
2022-08-30T04:57:10.860Z,101534.38
2022-08-30T04:58:13.746Z,101537.06
2022-08-30T04:59:15.446Z,101539.75
2022-08-30T05:00:20.707Z,101542.44
2022-08-30T05:01:25.141Z,101534.38
2022-08-30T05:02:28.929Z,101542.44
2022-08-30T05:03:31.980Z,101543.16
2022-08-30T05:04:34.609Z,101543.97
2022-08-30T05:05:42.579Z,101544.81
2022-08-30T05:06:45.330Z,101550.06
2022-08-30T05:07:47.118Z,101550.91
2022-08-30T05:08:49.756Z,101555.25
2022-08-30T05:09:51.376Z,101547.03
2022-08-30T05:10:53.966Z,101547.03
2022-08-30T05:11:55.570Z,101559.31
2022-08-30T05:12:58.174Z,101559.19
2022-08-30T05:13:59.784Z,101550.94
2022-08-30T05:15:02.431Z,101560.53
2022-08-30T05:16:06.519Z,101556.84
2022-08-30T05:17:09.216Z,101556.00
2022-08-30T05:18:14.065Z,101554.00
2022-08-30T05:19:18.261Z,101557.69
2022-08-30T05:20:20.092Z,101557.69
2022-08-30T05:21:25.420Z,101560.38
2022-08-30T05:22:27.157Z,101554.31
2022-08-30T05:23:29.729Z,101553.47
2022-08-30T05:24:32.617Z,101557.34
2022-08-30T05:25:39.071Z,101556.50
2022-08-30T05:26:41.846Z,101554.78
2022-08-30T05:30:00.085Z,101553.25
2022-08-30T05:31:01.921Z,101555.09
2022-08-30T05:32:04.657Z,101557.94
2022-08-30T05:33:06.643Z,101558.78
2022-08-30T05:34:09.209Z,101561.34
2022-08-30T05:35:13.909Z,101561.34
2022-08-30T05:36:18.583Z,101560.31
2022-08-30T05:37:20.260Z,101564.69
2022-08-30T05:38:22.878Z,101568.09
2022-08-30T05:39:24.619Z,101567.06
2022-08-30T05:40:27.253Z,101572.13
2022-08-30T05:41:31.984Z,101563.06
2022-08-30T05:42:34.168Z,101569.13
2022-08-30T05:43:37.423Z,101562.75
2022-08-30T05:44:40.013Z,101559.06
2022-08-30T05:45:46.987Z,101563.28
2022-08-30T05:46:49.201Z,101566.50
2022-08-30T05:47:51.783Z,101570.56
2022-08-30T05:48:53.726Z,101571.91
2022-08-30T05:49:56.423Z,101566.72
2022-08-30T05:51:05.051Z,101565.94
2022-08-30T05:52:07.868Z,101567.97
2022-08-30T05:53:09.569Z,101571.06
2022-08-30T05:54:13.425Z,101564.19
2022-08-30T05:55:15.352Z,101566.09
2022-08-30T05:56:20.458Z,101560.72
2022-08-30T05:57:22.140Z,101569.84
2022-08-30T05:58:25.007Z,101568.00
2022-08-30T05:59:26.610Z,101570.88
2022-08-30T06:00:30.336Z,101567.38
2022-08-30T06:01:35.065Z,101570.94
2022-08-30T06:02:37.832Z,101561.38
2022-08-30T06:03:40.517Z,101558.16
2022-08-30T06:04:42.084Z,101564.06
2022-08-30T06:06:49.976Z,101556.00
2022-08-30T06:07:52.719Z,101559.34
2022-08-30T06:08:54.783Z,101561.03
2022-08-30T06:09:57.369Z,101556.19
2022-08-30T06:10:59.139Z,101557.91
2022-08-30T06:12:01.741Z,101557.56
2022-08-30T06:13:04.510Z,101555.38
2022-08-30T06:14:06.704Z,101553.16
2022-08-30T06:15:10.176Z,101551.16
2022-08-30T06:16:13.463Z,101558.25
2022-08-30T06:17:17.594Z,101557.22
2022-08-30T06:18:19.717Z,101564.09
2022-08-30T06:19:31.116Z,101561.09
2022-08-30T06:20:32.911Z,101562.63
2022-08-30T06:21:38.142Z,101576.75
2022-08-30T06:22:42.078Z,101558.56
2022-08-30T06:23:44.687Z,101562.28
2022-08-30T06:24:57.289Z,101565.97
2022-08-30T06:26:03.947Z,101564.47
2022-08-30T06:27:06.658Z,101563.81
2022-08-30T06:28:08.308Z,101561.09
2022-08-30T06:29:12.910Z,101556.19
2022-08-30T06:30:15.016Z,101565.47
2022-08-30T06:31:23.579Z,101560.06
2022-08-30T06:32:26.268Z,101567.31
2022-08-30T06:33:27.876Z,101565.63
2022-08-30T06:34:30.675Z,101562.25
2022-08-30T06:35:38.255Z,101563.59
2022-08-30T06:36:49.804Z,101563.25
2022-08-30T06:37:52.814Z,101567.94
2022-08-30T06:38:57.410Z,101563.56
2022-08-30T06:40:01.499Z,101564.94
2022-08-30T06:41:06.082Z,101563.75
2022-08-30T06:42:08.831Z,101569.78
2022-08-30T06:43:10.433Z,101562.53
2022-08-30T06:44:13.143Z,101562.53
2022-08-30T06:45:16.260Z,101562.53
2022-08-30T06:46:20.695Z,101550.06
2022-08-30T06:47:23.441Z,101559.19
2022-08-30T06:48:25.153Z,101556.28
2022-08-30T06:49:27.752Z,101556.28
2022-08-30T06:50:29.594Z,101558.28
2022-08-30T06:51:36.456Z,101554.38
2022-08-30T06:52:38.586Z,101562.50
2022-08-30T06:53:42.612Z,101556.75
2022-08-30T06:54:45.914Z,101558.59
2022-08-30T06:55:55.814Z,101545.94
2022-08-30T06:56:59.057Z,101553.03
2022-08-30T06:58:01.997Z,101555.38
2022-08-30T06:59:09.184Z,101558.94
2022-08-30T07:00:15.335Z,101559.78
2022-08-30T07:01:20.178Z,101561.44
2022-08-30T07:02:22.854Z,101558.72
2022-08-30T07:03:27.209Z,101564.13
2022-08-30T07:04:29.851Z,101555.19
2022-08-30T07:05:32.963Z,101557.88
2022-08-30T07:06:36.429Z,101555.19
2022-08-30T07:07:38.071Z,101562.97
2022-08-30T07:08:44.560Z,101569.03
2022-08-30T07:09:48.698Z,101561.09
2022-08-30T07:10:55.745Z,101562.78
2022-08-30T07:12:02.955Z,101569.69
2022-08-30T07:13:04.564Z,101557.03
2022-08-30T07:14:08.049Z,101560.56
2022-08-30T07:15:10.706Z,101556.19
2022-08-30T07:16:15.482Z,101558.03
2022-08-30T07:17:35.590Z,101561.56
2022-08-30T07:18:54.670Z,101560.72
2022-08-30T07:19:57.248Z,101556.38
2022-08-30T07:21:05.322Z,101554.50
2022-08-30T07:22:07.897Z,101564.47
2022-08-30T07:23:09.749Z,101558.22
2022-08-30T07:24:14.409Z,101566.13
2022-08-30T07:25:17.360Z,101566.13
2022-08-30T07:26:25.441Z,101557.88
2022-08-30T07:27:27.170Z,101562.06
2022-08-30T07:28:29.860Z,101562.75
2022-08-30T07:29:32.429Z,101561.38
2022-08-30T07:30:36.287Z,101561.00
2022-08-30T07:31:39.026Z,101562.53
2022-08-30T07:32:40.741Z,101556.09
2022-08-30T07:33:43.716Z,101566.75
2022-08-30T07:34:46.435Z,101562.00
2022-08-30T07:35:48.759Z,101561.63
2022-08-30T07:36:51.495Z,101561.63
2022-08-30T07:37:53.199Z,101560.63
2022-08-30T07:38:55.863Z,101566.53
2022-08-30T07:39:58.974Z,101569.88
2022-08-30T07:41:01.914Z,101564.31
2022-08-30T07:42:04.091Z,101569.72
2022-08-30T07:43:06.786Z,101566.00
2022-08-30T07:44:10.062Z,101561.25
2022-08-30T07:45:13.431Z,101569.03
2022-08-30T07:46:17.156Z,101571.56
2022-08-30T07:47:19.963Z,101572.41
2022-08-30T07:48:21.700Z,101571.38
2022-08-30T07:49:24.473Z,101571.22
2022-08-30T07:50:26.083Z,101573.72
2022-08-30T07:51:29.357Z,101572.88
2022-08-30T07:52:31.756Z,101567.47
2022-08-30T07:53:34.903Z,101573.72
2022-08-30T07:54:38.857Z,101576.44
2022-08-30T07:55:42.307Z,101573.72
2022-08-30T07:56:45.658Z,101570.19
2022-08-30T07:57:48.549Z,101575.78
2022-08-30T07:58:52.106Z,101571.22
2022-08-30T07:59:53.977Z,101571.22
2022-08-30T08:00:59.311Z,101569.00
2022-08-30T08:02:02.594Z,101571.50
2022-08-30T08:03:07.287Z,101569.66
2022-08-30T08:04:10.600Z,101575.72
2022-08-30T08:05:17.296Z,101571.66
2022-08-30T08:06:23.842Z,101575.69
2022-08-30T08:07:25.419Z,101572.63
2022-08-30T08:08:28.632Z,101580.38
2022-08-30T08:09:30.709Z,101581.69
2022-08-30T08:10:34.147Z,101577.63
2022-08-30T08:11:40.645Z,101583.31
2022-08-30T08:12:42.345Z,101573.16
2022-08-30T08:13:52.838Z,101572.47
2022-08-30T08:14:55.508Z,101576.66
2022-08-30T08:15:58.223Z,101579.16
2022-08-30T08:17:00.333Z,101575.44
2022-08-30T08:18:02.913Z,101576.78
2022-08-30T08:19:08.956Z,101575.41
2022-08-30T08:20:11.916Z,101571.66
2022-08-30T08:21:14.875Z,101574.84
2022-08-30T08:22:21.268Z,101572.63
2022-08-30T08:23:24.404Z,101568.53
2022-08-30T08:24:26.060Z,101570.06
2022-08-30T08:25:29.365Z,101569.53
2022-08-30T08:26:34.181Z,101571.84
2022-08-30T08:27:38.157Z,101572.69
2022-08-30T08:28:40.861Z,101575.22
2022-08-30T08:29:42.591Z,101568.59
2022-08-30T08:30:48.249Z,101570.09
2022-08-30T08:31:50.614Z,101576.81
2022-08-30T08:32:53.970Z,101572.91
2022-08-30T08:33:56.170Z,101565.25
2022-08-30T08:34:58.882Z,101576.75
2022-08-30T08:36:02.768Z,101575.53
2022-08-30T08:37:05.181Z,101576.00
2022-08-30T08:38:07.815Z,101583.59
2022-08-30T08:39:09.707Z,101587.78
2022-08-30T08:40:16.480Z,101596.19
2022-08-30T08:41:36.147Z,101586.03
2022-08-30T08:42:52.500Z,101581.91
2022-08-30T08:43:54.389Z,101582.38
2022-08-30T08:45:03.093Z,101584.53
2022-08-30T08:46:15.834Z,101577.72
2022-08-30T08:47:25.001Z,101581.91
2022-08-30T08:48:51.978Z,101580.34
2022-08-30T08:49:59.418Z,101582.03
2022-08-30T08:51:21.533Z,101584.84
2022-08-30T08:52:47.274Z,101582.22
2022-08-30T08:53:58.767Z,101581.69
2022-08-30T08:55:06.845Z,101579.06
2022-08-30T08:56:15.077Z,101579.69
2022-08-30T08:57:19.395Z,101583.03
2022-08-30T08:58:28.985Z,101579.94
2022-08-30T08:59:32.009Z,101579.13
2022-08-30T09:00:33.745Z,101576.22
2022-08-30T09:01:38.457Z,101571.25
2022-08-30T09:02:43.442Z,101573.59
2022-08-30T09:03:47.257Z,101575.75
2022-08-30T09:04:52.996Z,101574.31
2022-08-30T09:05:57.454Z,101567.69
2022-08-30T09:07:03.826Z,101576.28
2022-08-30T09:08:10.130Z,101575.25
2022-08-30T09:09:13.784Z,101576.28
2022-08-30T09:10:20.425Z,101579.19
2022-08-30T09:11:32.364Z,101568.88
2022-08-30T09:12:34.322Z,101574.69
2022-08-30T09:13:38.319Z,101572.38
2022-08-30T09:14:46.069Z,101568.00
2022-08-30T09:15:52.437Z,101570.03
2022-08-30T09:17:03.307Z,101564.81
2022-08-30T09:18:11.398Z,101570.88
2022-08-30T09:19:34.555Z,101561.25
2022-08-30T09:20:41.053Z,101558.72
2022-08-30T09:21:42.747Z,101565.38
2022-08-30T09:22:46.746Z,101567.44
2022-08-30T09:23:50.712Z,101555.28
2022-08-30T09:24:56.743Z,101564.44
2022-08-30T09:36:21.953Z,101556.06
2022-08-30T09:37:39.002Z,101560.81
2022-08-30T09:38:40.904Z,101560.81
2022-08-30T09:39:45.701Z,101567.75
2022-08-30T09:40:50.510Z,101571.94
2022-08-30T09:41:53.216Z,101563.59
2022-08-30T09:43:09.880Z,101568.22
2022-08-30T09:44:19.012Z,101561.75
2022-08-30T09:45:31.745Z,101562.78
2022-08-30T09:46:33.571Z,101568.22
2022-08-30T09:47:36.544Z,101566.13
2022-08-30T09:48:44.027Z,101566.13
2022-08-30T09:49:46.208Z,101560.72
2022-08-30T09:50:55.946Z,101556.78
2022-08-30T09:52:18.643Z,101556.59
2022-08-30T09:53:25.342Z,101560.16
2022-08-30T09:54:36.743Z,101558.94
2022-08-30T09:55:55.508Z,101555.00
2022-08-30T09:57:12.614Z,101552.53
2022-08-30T09:58:23.909Z,101553.00
2022-08-30T09:59:41.173Z,101557.22
2022-08-30T10:00:53.803Z,101548.88
2022-08-30T10:02:05.363Z,101548.50
2022-08-30T10:03:40.124Z,101549.19
2022-08-30T10:04:50.093Z,101547.09
2022-08-30T10:05:59.763Z,101548.59
2022-08-30T10:07:09.062Z,101551.75
2022-08-30T10:08:19.735Z,101551.97
2022-08-30T10:09:32.626Z,101546.31
2022-08-30T10:10:45.263Z,101554.06
2022-08-30T10:11:54.652Z,101547.41
2022-08-30T10:13:04.934Z,101549.59
2022-08-30T10:14:43.570Z,101543.78
2022-08-30T10:15:51.094Z,101543.78
2022-08-30T10:17:01.858Z,101542.16
2022-08-30T10:18:13.665Z,101544.31
2022-08-30T10:19:30.957Z,101545.63
2022-08-30T10:20:39.741Z,101543.97
2022-08-30T10:21:47.307Z,101553.81
2022-08-30T10:22:55.836Z,101539.84
2022-08-30T10:24:05.754Z,101548.44
2022-08-30T10:25:12.362Z,101548.91
2022-08-30T10:26:26.598Z,101550.38
2022-08-30T10:27:39.618Z,101550.00
2022-08-30T10:28:46.835Z,101555.41
2022-08-30T10:29:54.594Z,101552.53
2022-08-30T10:30:59.536Z,101557.75
2022-08-30T10:32:07.343Z,101549.19
2022-08-30T10:33:16.215Z,101551.34
2022-08-30T10:34:24.747Z,101556.56
2022-08-30T10:35:38.315Z,101551.78
2022-08-30T10:36:45.479Z,101549.72
2022-08-30T10:37:54.647Z,101553.06
2022-08-30T10:38:59.824Z,101553.72
2022-08-30T10:40:27.472Z,101551.63
2022-08-30T10:41:36.424Z,101550.34
2022-08-30T10:42:40.239Z,101545.97
2022-08-30T10:43:51.014Z,101547.63
2022-08-30T10:44:59.843Z,101551.41
2022-08-30T10:46:05.647Z,101555.78
2022-08-30T10:47:23.189Z,101551.41
2022-08-30T10:48:31.776Z,101546.38
2022-08-30T10:49:40.526Z,101546.16
2022-08-30T10:50:47.056Z,101545.13
2022-08-30T10:51:59.098Z,101542.19
2022-08-30T10:53:10.543Z,101547.91
2022-08-30T10:54:19.393Z,101543.13
2022-08-30T10:55:26.596Z,101544.22
2022-08-30T10:56:29.574Z,101545.31
2022-08-30T10:57:32.358Z,101540.97
2022-08-30T10:58:37.968Z,101542.88
2022-08-30T10:59:47.470Z,101541.44
2022-08-30T11:01:06.525Z,101542.09
2022-08-30T11:02:36.362Z,101535.22
2022-08-30T11:04:14.426Z,101542.53
2022-08-30T11:05:32.194Z,101538.78
2022-08-30T11:06:39.486Z,101547.59
2022-08-30T11:07:52.101Z,101540.06
2022-08-30T11:09:28.253Z,101527.91
2022-08-30T11:10:42.848Z,101535.03
2022-08-30T11:12:13.234Z,101532.50
2022-08-30T11:13:19.331Z,101526.63
2022-08-30T11:15:58.599Z,101534.28
2022-08-30T11:17:02.600Z,101531.97
2022-08-30T11:18:13.584Z,101531.78
2022-08-30T11:19:24.326Z,101534.69
2022-08-30T11:20:36.732Z,101538.25
2022-08-30T11:21:40.775Z,101531.97
2022-08-30T11:23:21.330Z,101531.97
2022-08-30T11:24:27.087Z,101530.31
2022-08-30T11:25:57.505Z,101534.06
2022-08-30T11:27:03.051Z,101539.47
2022-08-30T11:28:06.271Z,101533.88
2022-08-30T11:29:09.149Z,101533.66
2022-08-30T11:30:52.460Z,101535.75
2022-08-30T11:31:55.440Z,101529.25
2022-08-30T11:33:02.099Z,101533.25
2022-08-30T11:34:12.715Z,101534.09
2022-08-30T11:35:37.133Z,101526.13
2022-08-30T11:37:09.661Z,101537.41
2022-08-30T11:38:18.389Z,101535.53
2022-08-30T11:41:10.485Z,101530.09
2022-08-30T11:42:24.769Z,101524.25
2022-08-30T11:43:51.011Z,101525.78
2022-08-30T11:45:36.865Z,101527.03
2022-08-30T11:46:42.394Z,101528.94
2022-08-30T11:47:50.691Z,101528.34
2022-08-30T11:48:55.956Z,101524.81
2022-08-30T11:50:09.680Z,101522.16
2022-08-30T11:51:50.887Z,101527.19
2022-08-30T11:53:21.316Z,101532.22
2022-08-30T11:54:34.064Z,101526.38
2022-08-30T11:55:46.978Z,101525.16
2022-08-30T11:56:57.716Z,101531.03
2022-08-30T11:58:14.745Z,101518.25
2022-08-30T11:59:28.224Z,101523.53
2022-08-30T12:00:35.096Z,101518.09
2022-08-30T12:01:51.619Z,101510.56
2022-08-30T12:02:59.503Z,101507.66
2022-08-30T12:04:06.678Z,101514.38
2022-08-30T12:05:09.509Z,101515.44
2022-08-30T12:06:12.384Z,101512.13
2022-08-30T12:07:51.645Z,101516.72
2022-08-30T12:08:57.871Z,101502.06
2022-08-30T12:10:08.080Z,101509.44
2022-08-30T12:11:59.731Z,101507.50
2022-08-30T12:13:02.852Z,101504.78
2022-08-30T12:14:09.107Z,101509.63
2022-08-30T12:15:29.238Z,101512.97
2022-08-30T12:16:58.933Z,101515.28
2022-08-30T12:18:21.496Z,101509.22
2022-08-30T12:19:24.997Z,101508.19
2022-08-30T12:20:40.866Z,101500.66
2022-08-30T12:21:45.277Z,101504.66
2022-08-30T12:22:47.127Z,101502.34
2022-08-30T12:23:55.219Z,101497.34
2022-08-30T12:24:57.778Z,101501.72
2022-08-30T12:26:20.821Z,101504.84
2022-08-30T12:27:25.286Z,101493.97
2022-08-30T12:28:27.820Z,101499.41
2022-08-30T12:29:31.451Z,101501.09
2022-08-30T12:30:38.479Z,101493.97
2022-08-30T12:31:44.119Z,101486.88
2022-08-30T12:32:47.716Z,101485.19
2022-08-30T12:34:00.792Z,101494.38
2022-08-30T12:35:05.596Z,101496.25
2022-08-30T12:36:12.345Z,101489.16
2022-08-30T12:37:24.167Z,101490.44
2022-08-30T12:38:27.782Z,101493.34
2022-08-30T12:39:33.056Z,101489.78
2022-08-30T12:40:35.092Z,101487.28
2022-08-30T12:41:43.479Z,101490.19
2022-08-30T12:42:51.856Z,101490.19
2022-08-30T12:43:55.837Z,101485.78
2022-08-30T12:45:00.526Z,101492.91
2022-08-30T12:46:07.675Z,101491.47
2022-08-30T12:47:12.689Z,101499.22